Time;durP1;ratioP1;P1;durP2;ratioP2;P2;SDS_P1;SDS_P2;PMS_P1;PMS_P2;Temp;Humidity;BMP_temperature;BMP_pressure;BME280_temperature;BME280_humidity;BME280_pressure;Samples;Min_cycle;Max_cycle;Signal;HPM_P1;HPM_P2
2022/03/12 00:01:58;;;;;;;44.30;17.20;;;;;;;-3.82;41.81;100153.03;107976;1283;23227;-71
2022/03/12 00:04:26;;;;;;;36.60;15.00;;;;;;;-3.83;41.84;100153.86;107971;1284;25512;-71
2022/03/12 00:06:53;;;;;;;39.60;15.50;;;;;;;-3.84;41.95;100150.10;107968;1284;22639;-71
2022/03/12 00:09:21;;;;;;;53.40;20.70;;;;;;;-3.84;41.72;100151.46;107970;1284;22808;-71
2022/03/12 00:11:55;;;;;;;58.70;21.80;;;;;;;-3.87;41.78;100150.75;107995;1284;24321;-70
2022/03/12 00:14:22;;;;;;;53.40;19.90;;;;;;;-3.87;41.68;100149.90;107983;1284;22557;-72
2022/03/12 00:16:50;;;;;;;63.70;24.70;;;;;;;-3.88;41.82;100152.61;107997;1282;22547;-71
2022/03/12 00:19:20;;;;;;;70.40;25.40;;;;;;;-3.89;41.95;100154.63;107986;1282;24468;-71
2022/03/12 00:21:50;;;;;;;68.70;26.50;;;;;;;-3.90;41.59;100155.97;107991;1284;22549;-75
2022/03/12 00:24:18;;;;;;;50.80;20.50;;;;;;;-3.90;41.73;100152.38;107982;1284;22623;-72
2022/03/12 00:26:46;;;;;;;52.70;23.00;;;;;;;-3.90;41.65;100149.48;107991;1282;22713;-71
2022/03/12 00:29:15;;;;;;;54.70;21.80;;;;;;;-3.92;41.71;100150.64;108042;1284;22563;-71
2022/03/12 00:31:44;;;;;;;55.20;22.40;;;;;;;-3.93;41.80;100149.44;107998;1282;25294;-71
2022/03/12 00:34:12;;;;;;;48.80;20.00;;;;;;;-3.94;41.65;100150.11;108024;1284;22626;-71
2022/03/12 00:36:39;;;;;;;53.30;20.90;;;;;;;-3.96;41.78;100149.58;108019;1282;22541;-72
2022/03/12 00:39:09;;;;;;;46.00;17.20;;;;;;;-3.99;41.68;100148.67;107992;1284;22627;-72
2022/03/12 00:41:42;;;;;;;45.90;17.50;;;;;;;-4.01;42.04;100151.17;108040;1284;22541;-72
2022/03/12 00:44:16;;;;;;;44.00;16.80;;;;;;;-4.02;41.76;100155.58;108017;1284;24260;-71
2022/03/12 00:46:44;;;;;;;37.50;14.10;;;;;;;-4.03;41.93;100156.08;108058;1284;22579;-71
2022/03/12 00:49:11;;;;;;;37.40;15.50;;;;;;;-4.06;41.98;100154.16;108038;1284;22565;-71
2022/03/12 00:51:39;;;;;;;56.10;20.90;;;;;;;-4.07;41.96;100150.39;108033;1283;22585;-71
2022/03/12 00:54:06;;;;;;;40.00;17.40;;;;;;;-4.08;41.92;100146.96;108023;1282;22559;-71
2022/03/12 00:56:33;;;;;;;41.60;17.90;;;;;;;-4.12;42.26;100144.69;108022;1284;22718;-71
2022/03/12 00:59:00;;;;;;;45.90;18.40;;;;;;;-4.15;42.41;100150.08;108015;1284;22555;-72
2022/03/12 01:01:27;;;;;;;30.80;13.30;;;;;;;-4.19;42.38;100146.77;108032;1283;22726;-71
2022/03/12 01:03:54;;;;;;;35.70;13.70;;;;;;;-4.22;42.44;100150.13;108034;1284;22697;-71
2022/03/12 01:06:22;;;;;;;30.90;13.50;;;;;;;-4.25;42.59;100147.85;108045;1284;22538;-71
2022/03/12 01:08:49;;;;;;;38.50;16.20;;;;;;;-4.30;42.76;100146.58;108048;1282;22653;-73
2022/03/12 01:11:16;;;;;;;39.10;16.00;;;;;;;-4.34;43.05;100141.23;108033;1284;25302;-71
2022/03/12 01:13:43;;;;;;;35.20;15.10;;;;;;;-4.38;43.43;100139.77;108033;1283;22629;-71
2022/03/12 01:16:10;;;;;;;40.70;16.40;;;;;;;-4.44;43.30;100141.70;108039;1284;25297;-71
2022/03/12 01:18:39;;;;;;;53.80;22.10;;;;;;;-4.49;43.33;100142.48;108000;1284;22541;-72
2022/03/12 01:21:18;;;;;;;36.30;16.40;;;;;;;-4.53;43.74;100142.57;108061;1282;22591;-71
2022/03/12 01:23:50;;;;;;;34.40;16.10;;;;;;;-4.57;43.85;100140.47;108036;1282;22615;-71
2022/03/12 01:26:19;;;;;;;49.80;17.60;;;;;;;-4.60;44.04;100139.73;107839;1282;22565;-71
2022/03/12 01:28:46;;;;;;;38.30;16.00;;;;;;;-4.64;44.15;100133.17;107731;1282;22616;-71
2022/03/12 01:31:14;;;;;;;42.70;17.30;;;;;;;-4.70;44.42;100126.27;107707;1282;26662;-71
2022/03/12 01:33:41;;;;;;;43.70;14.40;;;;;;;-4.74;44.52;100126.86;107713;1282;22590;-71
2022/03/12 01:36:08;;;;;;;32.40;13.40;;;;;;;-4.77;44.76;100124.08;107757;1282;22673;-72
2022/03/12 01:38:47;;;;;;;34.00;13.10;;;;;;;-4.80;44.93;100123.52;107681;1283;22581;-71
2022/03/12 01:41:24;;;;;;;34.10;14.20;;;;;;;-4.83;45.18;100120.90;107724;1283;22549;-71
2022/03/12 01:43:53;;;;;;;38.40;15.60;;;;;;;-4.84;45.26;100116.65;107446;1282;324865;-72
2022/03/12 01:46:33;;;;;;;43.00;15.00;;;;;;;-4.84;45.07;100118.67;107715;1280;26881;-72
2022/03/12 01:49:10;;;;;;;43.30;16.30;;;;;;;-4.85;45.31;100120.54;107717;1282;22553;-71
2022/03/12 01:51:40;;;;;;;39.00;15.40;;;;;;;-4.85;45.29;100116.27;107702;1282;22716;-71
2022/03/12 01:54:08;;;;;;;35.50;12.10;;;;;;;-4.85;45.26;100108.63;107730;1282;22550;-71
2022/03/12 01:56:35;;;;;;;37.40;14.20;;;;;;;-4.85;45.27;100107.27;107781;1282;22543;-72
2022/03/12 01:59:02;;;;;;;37.40;15.10;;;;;;;-4.84;45.30;100113.08;107720;1282;23155;-72
2022/03/12 02:01:30;;;;;;;31.40;12.60;;;;;;;-4.84;45.23;100114.43;107703;1282;25349;-71
2022/03/12 02:04:02;;;;;;;33.40;11.90;;;;;;;-4.84;45.29;100110.53;107720;1282;22553;-71
2022/03/12 02:06:29;;;;;;;26.80;12.40;;;;;;;-4.83;45.27;100112.23;107709;1282;22563;-71
2022/03/12 02:08:59;;;;;;;32.00;12.80;;;;;;;-4.83;45.18;100113.25;107752;1282;22661;-71
2022/03/12 02:11:28;;;;;;;29.40;11.80;;;;;;;-4.83;45.24;100107.48;107752;1282;22579;-71
2022/03/12 02:14:02;;;;;;;28.90;10.60;;;;;;;-4.83;45.03;100106.29;107731;1282;22635;-71
2022/03/12 02:16:30;;;;;;;29.10;11.60;;;;;;;-4.82;45.17;100101.53;107720;1282;22671;-71
2022/03/12 02:18:57;;;;;;;23.00;9.40;;;;;;;-4.81;45.11;100103.08;107756;1282;22719;-71
2022/03/12 02:21:41;;;;;;;25.90;11.10;;;;;;;-4.79;45.05;100101.27;107718;1282;24466;-71
2022/03/12 02:24:15;;;;;;;24.40;9.10;;;;;;;-4.78;45.07;100101.10;107780;1282;22738;-72
2022/03/12 02:26:43;;;;;;;28.00;11.40;;;;;;;-4.77;44.94;100104.88;107722;1282;25318;-71
2022/03/12 02:29:12;;;;;;;20.90;8.70;;;;;;;-4.77;44.95;100101.84;107693;1282;25562;-71
2022/03/12 02:32:01;;;;;;;23.90;9.60;;;;;;;-4.75;44.91;100105.27;107687;1282;22647;-72
2022/03/12 02:34:36;;;;;;;25.30;10.10;;;;;;;-4.73;44.89;100107.82;107730;1282;22533;-72
2022/03/12 02:37:03;;;;;;;24.80;11.00;;;;;;;-4.73;44.87;100110.04;107763;1282;22580;-71
2022/03/12 02:39:31;;;;;;;21.30;10.20;;;;;;;-4.73;44.84;100099.34;107735;1282;22726;-72
2022/03/12 02:42:03;;;;;;;33.80;12.70;;;;;;;-4.73;44.72;100103.42;108000;1282;22623;-71
2022/03/12 02:44:30;;;;;;;24.50;9.30;;;;;;;-4.74;44.76;100097.45;107723;1282;22547;-72
2022/03/12 02:47:14;;;;;;;20.00;9.10;;;;;;;-4.75;44.86;100097.78;107768;1282;22871;-72
2022/03/12 02:49:53;;;;;;;20.90;8.60;;;;;;;-4.76;44.87;100097.77;107795;1282;22659;-71
2022/03/12 02:52:22;;;;;;;20.80;9.20;;;;;;;-4.77;44.83;100100.11;107741;1282;26993;-72
2022/03/12 02:54:51;;;;;;;28.90;11.90;;;;;;;-4.79;44.83;100100.08;107761;1282;24307;-71
2022/03/12 02:57:25;;;;;;;29.40;11.40;;;;;;;-4.79;44.68;100102.60;107773;1282;22589;-71
2022/03/12 02:59:54;;;;;;;25.40;10.80;;;;;;;-4.79;44.86;100103.80;107714;1282;22659;-71
2022/03/12 03:02:25;;;;;;;27.90;11.00;;;;;;;-4.79;44.78;100107.89;107741;1282;22589;-70
2022/03/12 03:04:52;;;;;;;38.80;16.40;;;;;;;-4.79;44.78;100111.29;107760;1282;23619;-71
2022/03/12 03:07:19;;;;;;;29.60;12.30;;;;;;;-4.79;44.80;100106.02;107751;1282;24272;-71
2022/03/12 03:09:46;;;;;;;25.30;11.00;;;;;;;-4.80;44.87;100111.10;108073;1282;22618;-71
2022/03/12 03:12:13;;;;;;;25.60;8.40;;;;;;;-4.79;44.98;100115.38;107694;1282;22588;-71
2022/03/12 03:14:43;;;;;;;23.40;9.10;;;;;;;-4.78;44.80;100113.35;107714;1282;22544;-71
2022/03/12 03:17:13;;;;;;;20.40;8.40;;;;;;;-4.77;44.88;100117.28;107750;1282;22731;-70
2022/03/12 03:19:41;;;;;;;19.10;7.40;;;;;;;-4.77;44.89;100110.67;107727;1282;22552;-70
2022/03/12 03:22:08;;;;;;;20.60;8.80;;;;;;;-4.76;44.98;100110.86;107742;1282;22710;-71
2022/03/12 03:24:36;;;;;;;19.90;7.90;;;;;;;-4.76;44.78;100107.80;107769;1282;23175;-71
2022/03/12 03:27:03;;;;;;;27.90;10.00;;;;;;;-4.75;44.97;100109.52;107735;1282;22598;-71
2022/03/12 03:29:32;;;;;;;29.70;10.50;;;;;;;-4.74;44.76;100114.80;107707;1282;22727;-71
2022/03/12 03:32:03;;;;;;;22.00;8.70;;;;;;;-4.75;44.89;100117.33;107859;1282;22578;-70
2022/03/12 03:34:31;;;;;;;20.30;8.50;;;;;;;-4.78;44.87;100124.58;107707;1282;22656;-71
2022/03/12 03:36:59;;;;;;;24.40;10.10;;;;;;;-4.80;44.63;100125.21;107856;1282;22547;-71
2022/03/12 03:39:26;;;;;;;33.40;11.40;;;;;;;-4.80;44.94;100128.61;107744;1282;22593;-71
2022/03/12 03:41:53;;;;;;;25.80;10.70;;;;;;;-4.80;44.76;100130.46;107712;1282;26206;-71
2022/03/12 03:44:27;;;;;;;28.20;11.70;;;;;;;-4.81;44.68;100128.42;107688;1281;25264;-73
2022/03/12 03:46:56;;;;;;;32.10;12.50;;;;;;;-4.82;44.92;100129.07;107716;1282;23080;-71
2022/03/12 03:49:24;;;;;;;26.20;10.60;;;;;;;-4.83;44.86;100124.80;107761;1282;22565;-71
2022/03/12 03:51:56;;;;;;;40.80;13.30;;;;;;;-4.84;44.88;100123.77;107726;1282;22720;-71
2022/03/12 03:54:23;;;;;;;38.80;13.90;;;;;;;-4.85;44.83;100125.97;107686;1282;22667;-72
2022/03/12 03:56:50;;;;;;;27.50;11.00;;;;;;;-4.84;44.92;100127.51;107722;1282;24040;-71
2022/03/12 03:59:17;;;;;;;30.60;11.00;;;;;;;-4.84;44.77;100124.81;107696;1282;22699;-72
2022/03/12 04:01:45;;;;;;;24.90;10.20;;;;;;;-4.84;44.83;100127.35;107729;1282;22711;-72
2022/03/12 04:04:12;;;;;;;36.40;11.30;;;;;;;-4.85;44.89;100128.35;107737;1282;22554;-71
2022/03/12 04:06:40;;;;;;;31.20;10.60;;;;;;;-4.84;44.97;100127.52;107697;1282;22701;-72
2022/03/12 04:09:07;;;;;;;26.50;9.60;;;;;;;-4.83;44.91;100127.36;107729;1282;22573;-72
2022/03/12 04:11:35;;;;;;;29.70;11.70;;;;;;;-4.82;44.97;100132.45;107694;1282;25133;-71
2022/03/12 04:14:05;;;;;;;40.20;14.60;;;;;;;-4.83;44.89;100137.55;107700;1282;22599;-72
2022/03/12 04:16:33;;;;;;;36.90;15.50;;;;;;;-4.83;44.93;100140.10;107678;1282;22636;-71
2022/03/12 04:19:03;;;;;;;34.00;13.50;;;;;;;-4.83;44.96;100139.42;107707;1282;22656;-75
2022/03/12 04:21:30;;;;;;;24.40;11.40;;;;;;;-4.84;44.81;100136.69;107674;1282;22654;-71
2022/03/12 04:23:57;;;;;;;28.60;11.00;;;;;;;-4.86;44.92;100135.80;107679;1282;22565;-71
2022/03/12 04:26:24;;;;;;;26.80;11.20;;;;;;;-4.85;45.04;100135.81;107686;1282;22742;-71
2022/03/12 04:28:51;;;;;;;28.80;11.50;;;;;;;-4.85;45.00;100133.45;107668;1282;22571;-72
2022/03/12 04:31:19;;;;;;;25.90;11.80;;;;;;;-4.85;45.06;100135.14;107606;1282;22674;-72
2022/03/12 04:33:46;;;;;;;30.60;11.80;;;;;;;-4.87;45.17;100129.48;107635;1282;22547;-72
2022/03/12 04:36:13;;;;;;;24.30;10.20;;;;;;;-4.87;45.12;100133.05;107627;1282;23072;-71
2022/03/12 04:38:41;;;;;;;26.30;10.90;;;;;;;-4.87;45.14;100135.27;107636;1282;24850;-70
2022/03/12 04:41:08;;;;;;;20.40;8.30;;;;;;;-4.88;45.17;100131.66;107643;1282;22670;-74
2022/03/12 04:43:35;;;;;;;32.30;13.10;;;;;;;-4.90;45.30;100131.29;107617;1282;22643;-71
2022/03/12 04:46:02;;;;;;;38.00;14.70;;;;;;;-4.93;45.13;100135.84;107624;1282;22633;-71
2022/03/12 04:48:29;;;;;;;31.20;12.30;;;;;;;-4.94;45.10;100138.38;107647;1282;24101;-70
2022/03/12 04:50:57;;;;;;;29.20;11.30;;;;;;;-4.95;45.31;100133.07;107621;1282;22609;-71
2022/03/12 04:53:26;;;;;;;33.20;13.60;;;;;;;-4.97;45.13;100132.34;107627;1282;22789;-71
2022/03/12 04:55:54;;;;;;;39.60;14.20;;;;;;;-4.99;45.17;100135.18;107631;1281;22659;-71
2022/03/12 04:58:21;;;;;;;33.60;14.40;;;;;;;-5.00;45.32;100135.33;107626;1282;22859;-71
2022/03/12 05:00:48;;;;;;;31.40;13.20;;;;;;;-5.04;45.43;100135.61;107632;1282;25294;-71
2022/03/12 05:03:19;;;;;;;28.80;12.70;;;;;;;-5.07;45.19;100133.84;107606;1282;22565;-72
2022/03/12 05:05:49;;;;;;;37.10;14.90;;;;;;;-5.08;45.41;100129.20;107623;1282;22786;-71
2022/03/12 05:08:20;;;;;;;34.80;15.10;;;;;;;-5.11;45.30;100132.23;107667;1282;22637;-71
2022/03/12 05:10:50;;;;;;;26.30;12.30;;;;;;;-5.13;45.53;100129.11;107610;1282;22615;-70
2022/03/12 05:13:25;;;;;;;47.10;20.90;;;;;;;-5.15;45.50;100130.27;107610;1282;22640;-71
2022/03/12 05:15:55;;;;;;;36.20;16.70;;;;;;;-5.16;45.33;100126.16;107687;1282;22594;-71
2022/03/12 05:18:25;;;;;;;44.10;16.50;;;;;;;-5.16;45.45;100123.60;107633;1282;22721;-71
2022/03/12 05:20:52;;;;;;;38.10;16.70;;;;;;;-5.17;45.66;100124.77;107628;1282;22569;-71
2022/03/12 05:23:21;;;;;;;37.80;15.50;;;;;;;-5.18;45.45;100122.21;107619;1282;24005;-71
2022/03/12 05:25:49;;;;;;;39.80;15.60;;;;;;;-5.20;45.54;100121.34;107633;1282;25499;-71
2022/03/12 05:28:21;;;;;;;35.80;14.00;;;;;;;-5.22;45.75;100122.65;107923;1282;25340;-71
2022/03/12 05:30:49;;;;;;;33.70;15.50;;;;;;;-5.21;46.04;100126.05;107940;1282;22632;-71
2022/03/12 05:33:19;;;;;;;56.90;23.30;;;;;;;-5.17;46.03;100129.02;107945;1282;22555;-71
2022/03/12 05:35:48;;;;;;;72.90;26.10;;;;;;;-5.08;46.05;100131.09;107943;1282;22556;-73
2022/03/12 05:38:16;;;;;;;57.60;22.80;;;;;;;-4.93;46.09;100136.17;107845;1281;22583;-70
2022/03/12 05:40:44;;;;;;;83.60;31.10;;;;;;;-4.71;46.32;100143.40;107630;1282;22582;-74
2022/03/12 05:43:15;;;;;;;119.60;34.60;;;;;;;-4.48;46.58;100135.02;107649;1282;23569;-72
2022/03/12 05:45:45;;;;;;;153.90;39.20;;;;;;;-4.29;47.33;100133.50;107614;1282;22574;-72
2022/03/12 05:48:14;;;;;;;136.20;38.00;;;;;;;-4.11;47.86;100132.96;107623;1282;22604;-73
2022/03/12 05:50:43;;;;;;;55.90;25.10;;;;;;;-3.91;48.07;100138.09;107629;1282;24381;-72
2022/03/12 05:53:11;;;;;;;61.90;29.20;;;;;;;-3.70;48.05;100135.54;107562;1282;22774;-76
2022/03/12 05:55:39;;;;;;;40.10;16.20;;;;;;;-3.49;47.91;100139.42;107674;1282;25272;-72
2022/03/12 05:58:08;;;;;;;45.10;18.30;;;;;;;-3.29;47.88;100140.58;107628;1282;22699;-72
2022/03/12 06:00:35;;;;;;;46.20;18.50;;;;;;;-3.07;47.99;100135.93;107673;1282;22734;-72
2022/03/12 06:03:03;;;;;;;40.80;17.70;;;;;;;-2.83;47.83;100129.78;107640;1282;22560;-72
2022/03/12 06:05:31;;;;;;;50.70;19.00;;;;;;;-2.57;47.89;100126.66;107680;1282;22635;-73
2022/03/12 06:07:59;;;;;;;57.20;21.60;;;;;;;-2.31;47.89;100127.80;107661;1282;22704;-72
2022/03/12 06:10:29;;;;;;;88.70;30.00;;;;;;;-2.12;47.62;100126.80;107666;1282;22555;-72
2022/03/12 06:12:58;;;;;;;124.60;35.50;;;;;;;-1.93;47.13;100122.36;107662;1282;22710;-72
2022/03/12 06:15:26;;;;;;;101.70;30.50;;;;;;;-1.78;46.72;100121.63;107653;1281;22622;-73
2022/03/12 06:17:54;;;;;;;92.50;29.60;;;;;;;-1.70;45.97;100118.28;107712;1281;22644;-71
2022/03/12 06:20:23;;;;;;;60.20;21.60;;;;;;;-1.69;45.26;100114.88;107689;1282;22607;-71
2022/03/12 06:22:52;;;;;;;50.20;20.60;;;;;;;-1.54;44.26;100113.80;107699;1282;24240;-72
2022/03/12 06:25:22;;;;;;;41.60;17.30;;;;;;;-1.50;43.89;100117.91;107642;1282;22579;-72
2022/03/12 06:27:54;;;;;;;80.90;25.50;;;;;;;-1.48;43.53;100118.95;107606;1282;22581;-72
2022/03/12 06:30:24;;;;;;;95.90;31.20;;;;;;;-1.46;43.10;100116.07;107738;1282;22753;-72
2022/03/12 06:32:55;;;;;;;89.80;28.70;;;;;;;-1.42;43.32;100114.88;107638;1282;23235;-72
2022/03/12 06:35:24;;;;;;;65.10;23.20;;;;;;;-1.42;43.28;100111.80;107635;1282;22603;-72
2022/03/12 06:37:51;;;;;;;40.30;18.00;;;;;;;-1.48;43.25;100113.48;107634;1282;22575;-72
2022/03/12 06:40:20;;;;;;;32.30;14.30;;;;;;;-1.53;42.85;100115.68;107553;1282;22600;-72
2022/03/12 06:42:56;;;;;;;32.00;14.00;;;;;;;-1.56;42.40;100119.42;107955;1282;22656;-72
2022/03/12 06:45:24;;;;;;;34.10;14.10;;;;;;;-1.57;42.51;100118.38;107674;1282;22553;-72
2022/03/12 06:47:52;;;;;;;33.90;14.10;;;;;;;-1.58;42.39;100117.67;107621;1282;22557;-77
2022/03/12 06:50:22;;;;;;;32.90;14.90;;;;;;;-1.58;41.82;100121.44;107906;1281;22575;-71
2022/03/12 06:52:50;;;;;;;33.30;14.40;;;;;;;-1.56;41.80;100118.73;107622;1282;25420;-71
2022/03/12 06:55:21;;;;;;;34.60;14.60;;;;;;;-1.53;42.07;100123.70;107635;1282;22716;-73
2022/03/12 06:57:51;;;;;;;36.60;16.10;;;;;;;-1.52;41.64;100127.80;107634;1282;22797;-71
2022/03/12 07:00:24;;;;;;;26.70;11.70;;;;;;;-1.48;41.46;100125.61;107651;1282;22567;-71
2022/03/12 07:02:51;;;;;;;37.00;15.50;;;;;;;-1.45;41.56;100125.48;107616;1282;24303;-72
2022/03/12 07:05:19;;;;;;;32.80;12.90;;;;;;;-1.43;41.04;100122.40;107709;1282;25260;-73
2022/03/12 07:07:46;;;;;;;28.10;12.00;;;;;;;-1.37;41.53;100125.52;107694;1282;22542;-71
2022/03/12 07:10:14;;;;;;;30.30;12.20;;;;;;;-1.35;41.19;100129.81;107709;1282;22560;-71
2022/03/12 07:12:44;;;;;;;30.30;13.00;;;;;;;-1.33;41.44;100126.56;107710;1282;22605;-71
2022/03/12 07:15:13;;;;;;;35.00;13.60;;;;;;;-1.28;41.39;100129.35;107670;1282;22571;-73
2022/03/12 07:17:41;;;;;;;33.80;14.30;;;;;;;-1.23;41.46;100133.63;107657;1282;22583;-70
2022/03/12 07:20:11;;;;;;;40.40;15.90;;;;;;;-1.19;40.82;100139.14;107635;1282;23968;-70
2022/03/12 07:22:39;;;;;;;44.40;17.30;;;;;;;-1.13;41.29;100140.20;107626;1282;22566;-71
2022/03/12 07:25:08;;;;;;;31.20;14.00;;;;;;;-1.08;41.01;100138.86;107659;1282;22568;-70
2022/03/12 07:27:37;;;;;;;42.10;18.20;;;;;;;-1.04;40.82;100136.48;107784;1282;22864;-72
2022/03/12 07:30:09;;;;;;;68.80;32.60;;;;;;;-0.98;40.72;100134.28;107619;1282;22598;-71
2022/03/12 07:32:39;;;;;;;55.60;23.10;;;;;;;-0.92;40.94;100136.73;107872;1282;22585;-71
2022/03/12 07:35:06;;;;;;;34.50;14.40;;;;;;;-0.87;40.63;100136.05;107913;1282;23060;-72
2022/03/12 07:37:33;;;;;;;34.00;14.00;;;;;;;-0.80;40.20;100138.99;107697;1282;25216;-73
2022/03/12 07:40:01;;;;;;;32.80;13.70;;;;;;;-0.77;40.36;100139.02;107665;1282;23514;-71
2022/03/12 07:42:28;;;;;;;34.50;13.90;;;;;;;-0.70;40.16;100134.42;107639;1282;22682;-70
2022/03/12 07:44:55;;;;;;;35.20;13.90;;;;;;;-0.64;40.31;100130.34;107666;1282;22541;-72
2022/03/12 07:47:22;;;;;;;29.30;12.50;;;;;;;-0.55;40.10;100133.45;107617;1282;22558;-72
2022/03/12 07:49:49;;;;;;;29.90;13.00;;;;;;;-0.48;39.69;100135.01;107612;1282;22565;-72
2022/03/12 07:52:16;;;;;;;27.50;12.00;;;;;;;-0.41;39.06;100137.94;107605;1282;22555;-73
2022/03/12 07:54:43;;;;;;;38.80;15.00;;;;;;;-0.33;39.09;100137.79;107610;1282;24739;-72
2022/03/12 07:57:10;;;;;;;31.60;12.40;;;;;;;-0.27;38.98;100136.60;107619;1282;24228;-71
2022/03/12 07:59:37;;;;;;;27.70;11.90;;;;;;;-0.20;39.07;100135.42;107653;1282;22789;-73
2022/03/12 08:02:06;;;;;;;26.30;11.00;;;;;;;-0.13;39.19;100135.95;107624;1282;22588;-72
2022/03/12 08:04:35;;;;;;;27.10;12.00;;;;;;;-0.09;39.15;100134.42;107601;1282;23465;-74
2022/03/12 08:07:03;;;;;;;26.30;11.70;;;;;;;-0.04;38.92;100135.80;107603;1282;22565;-72
2022/03/12 08:09:31;;;;;;;30.00;11.00;;;;;;;0.04;38.88;100128.27;107959;1281;22550;-73
2022/03/12 08:12:00;;;;;;;29.40;10.80;;;;;;;0.08;38.53;100123.83;107669;1282;22573;-73
2022/03/12 08:14:28;;;;;;;32.60;12.50;;;;;;;0.11;38.39;100125.02;107653;1282;22583;-72
2022/03/12 08:16:55;;;;;;;24.40;11.90;;;;;;;0.13;38.39;100127.92;107654;1282;22585;-74
2022/03/12 08:19:22;;;;;;;26.60;11.80;;;;;;;0.18;38.06;100131.70;107610;1281;22623;-75
2022/03/12 08:21:51;;;;;;;36.80;14.20;;;;;;;0.26;38.12;100129.98;107621;1282;22641;-73
2022/03/12 08:24:19;;;;;;;31.70;14.10;;;;;;;0.34;38.66;100133.59;107668;1282;22724;-73
2022/03/12 08:26:48;;;;;;;30.60;12.90;;;;;;;0.43;38.25;100133.60;107624;1282;22557;-73
2022/03/12 08:29:18;;;;;;;37.80;15.60;;;;;;;0.50;38.69;100136.33;107647;1282;25414;-73
2022/03/12 08:31:46;;;;;;;31.60;12.60;;;;;;;0.56;38.46;100138.04;107596;1282;22705;-76
2022/03/12 08:34:14;;;;;;;34.30;14.90;;;;;;;0.62;38.52;100140.60;107586;1281;22573;-75
2022/03/12 08:36:42;;;;;;;33.00;14.50;;;;;;;0.64;38.51;100133.73;107655;1282;22578;-73
2022/03/12 08:39:10;;;;;;;30.30;12.60;;;;;;;0.66;38.28;100132.36;107643;1282;22612;-74
2022/03/12 08:41:38;;;;;;;36.50;17.30;;;;;;;0.72;38.40;100125.67;107699;1282;22582;-79
2022/03/12 08:44:07;;;;;;;31.00;15.80;;;;;;;0.78;37.86;100118.80;107879;1282;22684;-74
2022/03/12 08:46:35;;;;;;;44.50;19.60;;;;;;;0.87;38.08;100117.92;107863;1282;22671;-79
2022/03/12 08:49:05;;;;;;;32.50;13.90;;;;;;;0.96;37.87;100119.78;107919;1282;22542;-74
2022/03/12 08:51:32;;;;;;;31.40;14.10;;;;;;;1.06;37.55;100108.42;107932;1282;22636;-77
2022/03/12 08:54:01;;;;;;;30.60;14.20;;;;;;;1.16;37.98;100108.05;107926;1282;26539;-77
2022/03/12 08:56:28;;;;;;;27.60;13.20;;;;;;;1.21;37.36;100109.06;107923;1282;24311;-79
2022/03/12 08:58:57;;;;;;;35.70;16.20;;;;;;;1.30;37.77;100105.59;107937;1281;22543;-77
2022/03/12 09:01:25;;;;;;;30.50;15.20;;;;;;;1.35;37.38;100101.45;107908;1282;22629;-84
2022/03/12 09:03:52;;;;;;;27.40;11.10;;;;;;;1.40;37.27;100098.17;107918;1282;22569;-76
2022/03/12 09:06:20;;;;;;;20.50;9.30;;;;;;;1.47;37.08;100097.61;107900;1282;22633;-76
2022/03/12 09:08:47;;;;;;;21.50;9.70;;;;;;;1.52;36.61;100092.95;107938;1282;22626;-85
2022/03/12 09:11:19;;;;;;;18.50;8.40;;;;;;;1.60;36.37;100093.77;107949;1282;22552;-74
2022/03/12 09:13:46;;;;;;;31.00;11.90;;;;;;;1.71;36.35;100093.35;107940;1282;22716;-74
2022/03/12 09:16:15;;;;;;;30.40;13.10;;;;;;;1.79;36.73;100089.69;107953;1282;24223;-78
2022/03/12 09:18:44;;;;;;;27.70;12.30;;;;;;;1.86;36.60;100091.71;107971;1282;22748;-74
2022/03/12 09:21:11;;;;;;;26.70;11.50;;;;;;;1.95;36.17;100094.56;107952;1282;22625;-76
2022/03/12 09:23:38;;;;;;;21.50;9.90;;;;;;;2.03;36.11;100090.73;107940;1281;22591;-76
2022/03/12 09:26:06;;;;;;;19.40;9.10;;;;;;;2.09;35.80;100096.52;107928;1282;22703;-77
2022/03/12 09:28:33;;;;;;;23.40;10.50;;;;;;;2.14;35.82;100094.23;107974;1282;22546;-76
2022/03/12 09:31:00;;;;;;;26.60;11.70;;;;;;;2.21;35.90;100096.26;107969;1282;22547;-82
2022/03/12 09:33:27;;;;;;;30.40;13.70;;;;;;;2.27;35.96;100093.11;107931;1282;22541;-83
2022/03/12 09:35:54;;;;;;;26.20;12.60;;;;;;;2.30;36.18;100092.23;107952;1282;22712;-83
2022/03/12 09:38:22;;;;;;;26.10;12.50;;;;;;;2.32;35.55;100095.30;107963;1282;22553;-81
2022/03/12 09:40:49;;;;;;;25.00;11.40;;;;;;;2.34;35.33;100093.90;107934;1282;22663;-81
2022/03/12 09:43:16;;;;;;;20.70;10.70;;;;;;;2.34;34.85;100084.27;107939;1282;25996;-78
2022/03/12 09:45:43;;;;;;;24.90;11.10;;;;;;;2.37;35.02;100082.71;107934;1282;22615;-78
2022/03/12 09:48:11;;;;;;;28.50;12.90;;;;;;;2.39;34.88;100081.84;107934;1281;22541;-78
2022/03/12 09:50:38;;;;;;;26.90;12.20;;;;;;;2.40;34.63;100079.59;107960;1281;22550;-79
2022/03/12 09:53:05;;;;;;;31.20;13.30;;;;;;;2.47;35.14;100076.94;107940;1282;22720;-73
2022/03/12 09:55:34;;;;;;;25.50;11.30;;;;;;;2.50;34.36;100075.37;107866;1282;25335;-74
2022/03/12 09:58:01;;;;;;;26.30;11.30;;;;;;;2.56;34.25;100072.55;107645;1282;22745;-72
2022/03/12 10:00:28;;;;;;;29.70;13.70;;;;;;;2.64;34.82;100071.44;107672;1282;22770;-73
2022/03/12 10:02:55;;;;;;;24.20;11.70;;;;;;;2.72;34.06;100066.02;107645;1282;22563;-77
2022/03/12 10:05:23;;;;;;;35.20;12.40;;;;;;;2.82;34.59;100066.95;107657;1282;22701;-76
2022/03/12 10:07:50;;;;;;;28.20;12.00;;;;;;;2.90;33.53;100068.74;107609;1282;22572;-74
2022/03/12 10:10:22;;;;;;;23.80;12.60;;;;;;;2.94;34.47;100066.30;107636;1282;22568;-79
2022/03/12 10:12:50;;;;;;;25.80;12.00;;;;;;;2.98;33.99;100062.63;107648;1282;22642;-79
2022/03/12 10:15:19;;;;;;;23.40;11.30;;;;;;;3.05;34.76;100066.15;107653;1282;22583;-74
2022/03/12 10:17:47;;;;;;;26.10;11.70;;;;;;;3.11;34.61;100063.17;107647;1282;22627;-78
2022/03/12 10:20:15;;;;;;;25.90;12.60;;;;;;;3.16;33.67;100064.98;107601;1282;22567;-76
2022/03/12 10:22:45;;;;;;;22.60;12.40;;;;;;;3.22;34.07;100061.83;107652;1282;22589;-79
2022/03/12 10:25:13;;;;;;;26.90;12.20;;;;;;;3.26;33.56;100058.15;107644;1282;24258;-85
2022/03/12 10:27:41;;;;;;;22.70;11.60;;;;;;;3.25;32.54;100052.83;107680;1282;22740;-72
2022/03/12 10:30:10;;;;;;;24.80;11.70;;;;;;;3.27;32.64;100047.98;107708;1282;22616;-76
2022/03/12 10:32:46;;;;;;;28.10;11.40;;;;;;;3.26;32.83;100042.30;107632;1282;22847;-80
2022/03/12 10:35:16;;;;;;;25.90;12.10;;;;;;;3.29;33.29;100038.83;107623;1282;22599;-72
2022/03/12 10:37:44;;;;;;;20.40;9.80;;;;;;;3.32;32.81;100033.61;107654;1282;22571;-74
2022/03/12 10:40:14;;;;;;;26.60;11.90;;;;;;;3.39;31.78;100024.91;107694;1282;22638;-71
2022/03/12 10:42:51;;;;;;;22.70;11.20;;;;;;;3.45;31.73;100022.60;107638;1282;22754;-79
2022/03/12 10:45:21;;;;;;;28.50;11.80;;;;;;;3.51;30.95;100025.42;107632;1282;22680;-72
2022/03/12 10:47:54;;;;;;;23.20;12.30;;;;;;;3.55;32.31;100026.76;107651;1282;22556;-73
2022/03/12 10:50:30;;;;;;;25.00;11.60;;;;;;;3.57;31.48;100025.86;107621;1282;22614;-75
2022/03/12 10:52:58;;;;;;;20.40;9.80;;;;;;;3.63;32.32;100020.77;107887;1282;22713;-73
2022/03/12 10:55:29;;;;;;;21.90;9.20;;;;;;;3.67;31.72;100017.78;107643;1282;22868;-83
2022/03/12 10:58:07;;;;;;;21.50;9.80;;;;;;;3.69;31.06;100015.69;107992;1282;22573;-74
2022/03/12 11:00:38;;;;;;;27.30;11.00;;;;;;;3.72;30.81;100019.95;107789;1282;22563;-71
2022/03/12 11:03:12;;;;;;;21.90;11.40;;;;;;;3.79;30.59;100012.42;107939;1282;22541;-71
2022/03/12 11:05:43;;;;;;;19.10;9.00;;;;;;;3.83;30.14;100004.62;107975;1282;22585;-73
2022/03/12 11:08:17;;;;;;;22.60;10.60;;;;;;;3.87;31.12;100000.23;107963;1282;22541;-72
2022/03/12 11:10:52;;;;;;;18.60;9.70;;;;;;;3.90;30.83;100003.30;107956;1282;22539;-73
2022/03/12 11:13:42;;;;;;;20.30;9.30;;;;;;;3.93;30.65;100002.71;107941;1282;22544;-71